createdAt,value
2023-01-11T05:24:27.348Z,9.23
2023-01-11T05:26:54.142Z,8.05
2023-01-11T05:29:21.432Z,13.55
2023-01-11T05:31:48.927Z,13.40
2023-01-11T05:34:17.519Z,10.23
2023-01-11T05:36:44.928Z,10.75
2023-01-11T05:39:13.374Z,10.75
2023-01-11T05:41:40.408Z,13.43
2023-01-11T05:44:30.201Z,15.23
2023-01-11T05:46:56.961Z,12.68
2023-01-11T05:49:23.854Z,22.13
2023-01-11T05:51:50.583Z,20.02
2023-01-11T05:54:17.408Z,19.42
2023-01-11T05:56:44.174Z,18.42
2023-01-11T05:59:11.453Z,20.42
2023-01-11T06:01:38.571Z,12.93
2023-01-11T06:04:05.700Z,16.15
2023-01-11T06:06:33.739Z,13.52
2023-01-11T06:09:00.559Z,12.88
2023-01-11T06:11:27.353Z,24.60
2023-01-11T06:13:54.415Z,19.83
2023-01-11T06:23:46.406Z,28.05
2023-01-11T06:26:15.774Z,12.63
2023-01-11T06:28:43.161Z,14.65
2023-01-11T06:31:10.045Z,29.20
2023-01-11T06:33:37.794Z,17.75
2023-01-11T06:36:12.630Z,14.20
2023-01-11T06:38:40.006Z,47.15
2023-01-11T06:41:10.800Z,10.88
2023-01-11T06:43:41.186Z,31.77
2023-01-11T06:46:15.467Z,13.73
2023-01-11T06:48:42.928Z,10.88
2023-01-11T06:51:12.137Z,14.52
2023-01-11T06:53:40.401Z,15.80
2023-01-11T06:56:08.024Z,11.85
2023-01-11T06:58:35.379Z,7.50
2023-01-11T07:01:02.303Z,14.95
2023-01-11T07:03:29.401Z,14.00
2023-01-11T17:24:29.157Z,44.65
2023-01-11T17:27:02.181Z,41.85
2023-01-11T17:29:35.108Z,37.53
2023-01-11T17:32:04.644Z,36.13
2023-01-11T17:34:37.228Z,44.50
2023-01-11T17:37:10.681Z,54.00
2023-01-11T17:39:43.538Z,44.10
2023-01-11T17:42:32.320Z,55.10
2023-01-11T17:45:13.752Z,47.47
2023-01-11T17:47:43.021Z,56.53
2023-01-11T17:50:27.189Z,48.72
2023-01-11T17:53:21.958Z,51.72
2023-01-11T17:55:54.224Z,47.75
2023-01-11T17:58:23.631Z,47.17
2023-01-11T18:01:08.626Z,48.53
2023-01-11T18:03:51.917Z,49.42
2023-01-11T18:06:42.619Z,44.90
2023-01-11T18:09:24.650Z,41.35
2023-01-11T18:11:53.153Z,43.67
2023-01-11T18:14:29.653Z,55.13
2023-01-11T18:17:03.094Z,66.93
2023-01-11T18:19:41.538Z,60.80
2023-01-11T18:42:16.719Z,52.95
2023-01-11T18:44:46.727Z,48.38
2023-01-11T18:47:25.537Z,49.72
2023-01-11T18:49:53.695Z,47.70
2023-01-11T18:52:22.574Z,45.83
2023-01-11T18:54:49.571Z,52.17
2023-01-11T18:57:16.402Z,49.60
2023-01-11T18:59:43.368Z,44.22
2023-01-11T19:02:28.252Z,50.63
2023-01-11T19:04:57.545Z,52.97
2023-01-11T19:07:26.544Z,44.78
2023-01-11T19:09:57.051Z,53.20
2023-01-11T19:12:24.849Z,66.50
2023-01-11T19:14:51.923Z,47.08
2023-01-11T19:17:19.111Z,48.50
2023-01-11T19:19:46.566Z,41.78
2023-01-11T19:22:14.524Z,41.35
2023-01-11T19:24:42.001Z,40.63
2023-01-11T19:27:08.959Z,36.78
2023-01-11T19:29:36.268Z,40.35
2023-01-11T19:32:03.943Z,40.10
2023-01-11T19:34:33.926Z,43.30
2023-01-11T19:37:01.326Z,38.95
2023-01-11T19:39:28.253Z,42.35
2023-01-11T19:41:55.316Z,37.22
2023-01-11T19:44:23.192Z,37.70
2023-01-11T19:47:00.340Z,37.45
2023-01-11T19:49:37.013Z,36.10
2023-01-11T19:52:04.409Z,41.13
2023-01-11T19:54:31.320Z,39.55
2023-01-11T19:56:58.832Z,36.15
2023-01-11T19:59:25.856Z,24.02
2023-01-11T20:01:52.783Z,26.10
2023-01-11T20:04:21.600Z,23.75
2023-01-11T20:06:52.945Z,33.38
2023-01-11T20:09:21.369Z,30.20
2023-01-11T20:11:49.903Z,34.22
2023-01-11T20:14:17.554Z,26.50
2023-01-11T20:16:46.175Z,27.02
2023-01-11T20:19:13.439Z,22.35
2023-01-11T20:21:40.611Z,11.45
2023-01-11T20:24:07.941Z,12.88
2023-01-11T20:26:35.047Z,15.45
2023-01-11T20:29:06.422Z,21.65
2023-01-11T20:31:36.085Z,27.60
2023-01-11T20:34:08.552Z,25.92
2023-01-11T20:36:35.881Z,20.52
2023-01-11T20:39:04.855Z,24.38
2023-01-11T20:41:50.211Z,21.40
2023-01-11T20:44:24.981Z,20.25
2023-01-11T20:46:54.153Z,12.93
2023-01-11T20:49:23.653Z,13.40
2023-01-11T20:51:52.441Z,13.77
2023-01-11T20:54:20.011Z,11.88
2023-01-11T20:56:47.947Z,11.07
2023-01-11T20:59:18.732Z,13.38
2023-01-11T21:01:49.304Z,15.20
2023-01-11T21:04:17.473Z,14.63
2023-01-11T21:06:46.530Z,12.65
2023-01-11T21:09:15.514Z,14.30
2023-01-11T21:11:42.457Z,20.42
2023-01-11T21:14:12.308Z,16.98
2023-01-11T21:16:44.439Z,12.32
2023-01-11T21:19:13.006Z,24.50
2023-01-11T21:21:39.744Z,27.77
2023-01-11T21:24:07.439Z,59.83
2023-01-11T21:26:34.897Z,72.05
2023-01-11T21:29:04.222Z,66.25
2023-01-11T21:31:33.787Z,70.70
2023-01-11T21:34:00.797Z,60.50
2023-01-11T21:36:30.211Z,48.45
2023-01-11T21:38:58.451Z,54.00
2023-01-11T21:41:46.228Z,51.83
2023-01-11T21:44:14.192Z,46.15
2023-01-11T21:46:41.324Z,42.58
2023-01-11T21:49:08.721Z,43.45
2023-01-11T21:51:36.312Z,51.50
2023-01-11T21:54:08.628Z,43.13
2023-01-11T21:56:35.928Z,32.42
2023-01-11T21:59:02.776Z,39.90
2023-01-11T22:01:29.754Z,32.28
2023-01-11T22:03:56.885Z,24.77
2023-01-11T22:06:23.781Z,23.77
2023-01-11T22:08:50.711Z,22.05
2023-01-11T22:11:18.337Z,18.45
2023-01-11T22:13:45.146Z,18.85
2023-01-11T22:16:17.707Z,16.35
2023-01-11T22:18:45.360Z,15.48
2023-01-11T22:21:15.520Z,12.43
2023-01-11T22:23:42.330Z,13.43
2023-01-11T22:26:12.001Z,14.38
2023-01-11T22:28:58.008Z,11.55
2023-01-11T22:31:27.600Z,16.67
2023-01-11T22:33:55.374Z,13.77
2023-01-11T22:36:23.781Z,15.50
2023-01-11T22:38:51.476Z,14.10
2023-01-11T22:41:18.815Z,16.05
2023-01-11T22:43:46.091Z,15.90
2023-01-11T22:46:15.641Z,18.38
2023-01-11T22:48:42.727Z,26.70
2023-01-11T22:51:11.451Z,20.08
2023-01-11T22:53:39.681Z,58.58
2023-01-11T22:56:07.584Z,57.95
2023-01-11T22:58:36.060Z,35.85
2023-01-11T23:01:18.709Z,28.35
2023-01-11T23:03:46.544Z,40.90
2023-01-11T23:06:16.486Z,35.42
2023-01-11T23:08:44.130Z,29.90
2023-01-11T23:11:38.049Z,33.22
2023-01-11T23:14:07.658Z,30.17
2023-01-11T23:16:35.333Z,28.73
2023-01-11T23:19:03.130Z,27.40
2023-01-11T23:21:30.200Z,21.60
2023-01-11T23:23:57.632Z,21.80
2023-01-11T23:26:24.446Z,23.38
2023-01-11T23:28:51.570Z,21.83
2023-01-11T23:31:21.269Z,34.10
2023-01-11T23:33:51.099Z,136.07
2023-01-11T23:36:20.733Z,57.75
2023-01-11T23:38:47.879Z,55.97
2023-01-11T23:41:35.719Z,33.65
2023-01-11T23:44:04.897Z,47.22
2023-01-11T23:46:50.383Z,44.50
2023-01-11T23:49:18.032Z,43.03
2023-01-11T23:51:45.165Z,35.13
2023-01-11T23:54:12.337Z,26.52
2023-01-11T23:56:39.450Z,29.25
2023-01-11T23:59:07.526Z,27.05
